createdAt,value
2023-01-21T00:01:37.142Z,48.26
2023-01-21T00:04:03.473Z,47.74
2023-01-21T00:09:23.955Z,47.53
2023-01-21T00:11:50.305Z,47.06
2023-01-21T00:14:16.651Z,47.28
2023-01-21T00:16:42.998Z,47.41
2023-01-21T00:19:09.413Z,47.67
2023-01-21T00:24:20.308Z,47.31
2023-01-21T00:26:46.632Z,47.42
2023-01-21T00:29:13.000Z,47.18
2023-01-21T00:31:39.441Z,46.74
2023-01-21T00:34:05.807Z,47.04
2023-01-21T00:39:26.112Z,46.77
2023-01-21T00:41:52.516Z,46.67
2023-01-21T00:44:18.860Z,46.79
2023-01-21T00:46:45.194Z,46.49
2023-01-21T00:49:11.577Z,46.89
2023-01-21T00:54:22.051Z,46.57
2023-01-21T00:56:48.398Z,46.72
2023-01-21T00:59:16.012Z,46.48
2023-01-21T01:01:42.584Z,46.70
2023-01-21T01:04:08.937Z,46.01
2023-01-21T01:09:32.073Z,46.34
2023-01-21T01:11:58.388Z,46.26
2023-01-21T01:14:24.740Z,46.54
2023-01-21T01:16:51.158Z,46.41
2023-01-21T01:19:17.520Z,46.40
2023-01-21T01:24:27.914Z,45.84
2023-01-21T01:26:54.268Z,46.40
2023-01-21T01:29:20.633Z,46.05
2023-01-21T01:31:46.989Z,46.04
2023-01-21T01:34:13.362Z,46.21
2023-01-21T01:36:39.700Z,45.94
2023-01-21T01:39:06.096Z,46.74
2023-01-21T01:41:32.446Z,46.45
2023-01-21T01:43:58.811Z,46.10
2023-01-21T01:46:25.179Z,46.25
2023-01-21T01:48:51.547Z,46.11
2023-01-21T01:51:17.923Z,46.25
2023-01-21T01:53:44.280Z,46.30
2023-01-21T01:56:10.591Z,46.18
2023-01-21T01:58:39.732Z,46.42
2023-01-21T02:01:06.079Z,46.35
2023-01-21T02:03:32.419Z,46.19
2023-01-21T02:05:58.740Z,46.38
2023-01-21T02:08:25.052Z,46.19
2023-01-21T02:10:54.203Z,46.36
2023-01-21T02:13:20.555Z,46.36
2023-01-21T02:15:46.962Z,46.54
2023-01-21T02:18:13.377Z,46.05
2023-01-21T02:20:39.712Z,46.62
2023-01-21T02:23:06.028Z,45.75
2023-01-21T02:25:32.348Z,46.61
2023-01-21T02:27:58.695Z,46.80
2023-01-21T02:30:25.038Z,46.41
2023-01-21T02:32:54.220Z,46.50
2023-01-21T02:35:20.562Z,46.49
2023-01-21T02:37:46.880Z,46.56
2023-01-21T02:43:07.111Z,46.41
2023-01-21T02:45:36.221Z,47.26
2023-01-21T02:48:05.344Z,46.65
2023-01-21T02:50:34.476Z,46.84
2023-01-21T02:53:00.778Z,47.00
2023-01-21T02:58:26.747Z,46.79
2023-01-21T03:00:53.077Z,46.49
2023-01-21T03:03:19.425Z,46.54
2023-01-21T03:05:48.598Z,47.32
2023-01-21T03:08:14.950Z,46.89
2023-01-21T03:13:30.854Z,46.80
2023-01-21T03:16:00.001Z,46.81
2023-01-21T03:18:29.142Z,47.44
2023-01-21T03:20:55.434Z,46.69
2023-01-21T03:23:21.740Z,47.18
2023-01-21T03:28:37.401Z,46.54
2023-01-21T03:31:06.570Z,47.21
2023-01-21T03:33:35.776Z,46.68
2023-01-21T03:36:02.087Z,46.64
2023-01-21T03:38:31.206Z,46.51
2023-01-21T03:43:44.301Z,46.91
2023-01-21T03:46:13.416Z,46.69
2023-01-21T03:48:39.743Z,46.57
2023-01-21T03:51:06.086Z,47.05
2023-01-21T03:53:35.291Z,46.75
2023-01-21T03:58:48.396Z,47.19
2023-01-21T04:01:14.730Z,47.06
2023-01-21T04:03:43.911Z,47.00
2023-01-21T04:06:10.334Z,46.48
2023-01-21T04:08:39.452Z,47.02
2023-01-21T04:13:59.469Z,46.66
2023-01-21T04:16:28.644Z,46.88
2023-01-21T04:18:55.015Z,46.97
2023-01-21T04:21:24.180Z,46.88
2023-01-21T04:23:50.480Z,46.75
2023-01-21T04:29:03.220Z,47.00
2023-01-21T04:31:32.333Z,46.49
2023-01-21T04:34:01.615Z,47.20
2023-01-21T04:36:27.925Z,46.46
2023-01-21T04:38:57.055Z,46.55
2023-01-21T04:44:07.447Z,46.79
2023-01-21T04:46:36.552Z,46.65
2023-01-21T04:49:05.763Z,46.62
2023-01-21T04:51:34.853Z,46.79
2023-01-21T04:54:01.153Z,46.86
2023-01-21T04:59:27.217Z,46.74
2023-01-21T05:01:53.513Z,46.54
2023-01-21T05:04:19.821Z,46.67
2023-01-21T05:06:48.937Z,46.65
2023-01-21T05:09:15.254Z,46.70
2023-01-21T05:14:38.456Z,47.50
2023-01-21T05:17:07.592Z,46.97
2023-01-21T05:19:33.940Z,46.81
2023-01-21T05:22:00.252Z,46.96
2023-01-21T05:24:26.576Z,46.71
2023-01-21T05:29:36.738Z,46.74
2023-01-21T05:32:03.108Z,46.81
2023-01-21T05:34:29.464Z,47.00
2023-01-21T05:36:55.778Z,46.71
2023-01-21T05:39:24.896Z,46.86
2023-01-21T05:44:38.018Z,46.82
2023-01-21T05:47:04.360Z,46.45
2023-01-21T05:49:33.459Z,46.55
2023-01-21T05:52:02.580Z,46.87
2023-01-21T05:54:31.685Z,46.48
2023-01-21T05:59:41.608Z,46.72
2023-01-21T06:02:10.724Z,46.86
2023-01-21T06:04:37.086Z,46.71
2023-01-21T06:07:06.230Z,46.79
2023-01-21T06:09:35.301Z,46.62
2023-01-21T06:14:58.388Z,46.50
2023-01-21T06:17:24.701Z,47.03
2023-01-21T06:19:53.857Z,46.63
2023-01-21T06:22:20.172Z,46.81
2023-01-21T06:24:46.499Z,47.12
2023-01-21T06:30:09.762Z,47.54
2023-01-21T06:32:36.140Z,47.09
2023-01-21T06:35:05.252Z,47.03
2023-01-21T06:37:34.355Z,47.37
2023-01-21T06:40:03.471Z,47.26
2023-01-21T06:45:16.544Z,47.58
2023-01-21T06:47:42.878Z,48.04
2023-01-21T06:50:09.309Z,47.63
2023-01-21T06:52:35.678Z,48.06
2023-01-21T06:55:02.037Z,48.23
2023-01-21T07:00:22.135Z,48.64
2023-01-21T07:02:48.596Z,48.01
2023-01-21T07:05:15.440Z,48.05
2023-01-21T07:07:41.953Z,48.36
2023-01-21T07:10:08.304Z,48.03
2023-01-21T07:15:19.961Z,47.51
2023-01-21T07:17:49.931Z,46.77
2023-01-21T07:20:16.412Z,47.00
2023-01-21T07:22:42.852Z,46.99
2023-01-21T07:25:10.087Z,46.49
2023-01-21T07:30:31.159Z,46.71
2023-01-21T07:32:57.938Z,47.33
2023-01-21T07:35:24.598Z,46.70
2023-01-21T07:37:51.220Z,47.00
2023-01-21T07:40:17.677Z,46.65
2023-01-21T07:42:44.093Z,46.74
2023-01-21T07:45:10.609Z,46.23
2023-01-21T07:47:37.047Z,46.58
2023-01-21T07:50:03.486Z,46.20
2023-01-21T07:52:29.881Z,45.92
2023-01-21T07:54:56.315Z,45.98
2023-01-21T07:57:23.572Z,46.10
2023-01-21T07:59:50.024Z,45.62
2023-01-21T08:02:16.670Z,45.58
2023-01-21T08:04:43.133Z,45.84
2023-01-21T08:07:13.258Z,45.85
2023-01-21T08:09:43.317Z,45.81
2023-01-21T08:12:11.650Z,45.96
2023-01-21T08:14:39.074Z,46.17
2023-01-21T08:17:05.546Z,45.99
2023-01-21T08:19:31.995Z,46.31
2023-01-21T08:21:59.416Z,46.34
2023-01-21T08:24:25.895Z,47.00
2023-01-21T08:26:52.383Z,46.52
2023-01-21T08:29:19.793Z,47.08
2023-01-21T08:31:47.229Z,47.15
2023-01-21T08:34:13.746Z,47.19
2023-01-21T08:36:41.161Z,47.45
2023-01-21T08:39:07.616Z,47.08
2023-01-21T08:41:34.070Z,47.59
2023-01-21T08:44:01.346Z,47.49
2023-01-21T08:46:27.792Z,47.38
2023-01-21T08:48:54.274Z,47.93
2023-01-21T08:51:21.771Z,47.28
2023-01-21T08:53:48.295Z,47.22
2023-01-21T08:56:14.732Z,47.62
2023-01-21T08:58:41.210Z,47.64
2023-01-21T09:01:08.565Z,47.81
2023-01-21T09:03:35.837Z,47.51
2023-01-21T09:06:02.288Z,47.91
2023-01-21T09:08:29.572Z,47.56
2023-01-21T09:10:55.989Z,47.87
2023-01-21T09:13:23.250Z,47.62
2023-01-21T09:18:45.327Z,47.59
2023-01-21T09:21:12.663Z,47.89
2023-01-21T09:23:40.988Z,48.14
2023-01-21T09:26:07.441Z,48.48
2023-01-21T09:28:34.703Z,48.02
2023-01-21T09:33:46.741Z,48.66
2023-01-21T09:36:15.049Z,48.15
2023-01-21T09:38:41.527Z,48.13
2023-01-21T09:41:08.821Z,48.38
2023-01-21T09:43:35.251Z,47.79
2023-01-21T09:48:55.656Z,48.20
2023-01-21T09:51:24.773Z,48.39
2023-01-21T09:53:51.162Z,47.75
2023-01-21T09:56:18.370Z,47.36
2023-01-21T09:58:44.764Z,47.46
2023-01-21T10:04:05.967Z,47.42
2023-01-21T10:06:32.363Z,47.67
2023-01-21T10:08:58.686Z,47.70
2023-01-21T10:11:25.915Z,48.67
2023-01-21T10:13:52.311Z,48.01
2023-01-21T10:19:03.310Z,47.73
2023-01-21T10:21:29.731Z,47.66
2023-01-21T10:23:56.134Z,48.14
2023-01-21T10:26:22.556Z,48.77
2023-01-21T10:28:49.004Z,48.86
2023-01-21T10:34:02.894Z,48.12
2023-01-21T10:36:35.143Z,49.62
2023-01-21T10:39:05.313Z,48.58
2023-01-21T10:41:35.229Z,48.32
2023-01-21T10:44:01.667Z,48.79
2023-01-21T10:49:13.194Z,49.99
2023-01-21T10:51:39.737Z,49.32
2023-01-21T10:54:07.166Z,49.40
2023-01-21T10:56:33.642Z,49.12
2023-01-21T10:59:00.107Z,49.51
2023-01-21T11:04:21.422Z,49.12
2023-01-21T11:06:49.025Z,49.21
2023-01-21T11:09:15.712Z,48.78
2023-01-21T11:11:42.232Z,48.86
2023-01-21T11:14:08.730Z,49.27
2023-01-21T11:19:20.173Z,49.58
2023-01-21T11:21:47.586Z,49.06
2023-01-21T11:24:14.073Z,49.06
2023-01-21T11:26:40.555Z,49.14
2023-01-21T11:29:08.026Z,49.48
2023-01-21T11:34:18.321Z,49.34
2023-01-21T11:36:45.749Z,49.31
2023-01-21T11:39:12.242Z,49.31
2023-01-21T11:41:38.725Z,49.65
2023-01-21T11:44:06.995Z,50.71
2023-01-21T11:46:33.574Z,50.58
2023-01-21T11:49:00.088Z,49.64
2023-01-21T11:51:26.642Z,49.16
2023-01-21T11:53:54.050Z,50.04
2023-01-21T11:56:20.592Z,49.65
2023-01-21T11:58:47.210Z,49.49
2023-01-21T12:01:13.702Z,49.54
2023-01-21T12:03:41.179Z,49.52
2023-01-21T12:06:07.723Z,49.33
2023-01-21T12:08:35.950Z,49.88
2023-01-21T12:11:03.364Z,49.43
2023-01-21T12:13:29.851Z,50.12
2023-01-21T12:15:56.348Z,49.70
2023-01-21T12:18:23.789Z,49.88
2023-01-21T12:20:51.218Z,50.10
2023-01-21T12:23:18.029Z,49.84
2023-01-21T12:25:44.531Z,49.46
2023-01-21T12:28:11.948Z,49.62
2023-01-21T12:30:38.489Z,50.02
2023-01-21T12:33:05.968Z,49.53
2023-01-21T12:35:32.459Z,51.03
2023-01-21T12:37:59.887Z,50.80
2023-01-21T12:40:26.364Z,50.05
2023-01-21T12:42:52.874Z,50.04
2023-01-21T12:45:20.330Z,49.92
2023-01-21T12:47:47.775Z,50.15
2023-01-21T12:50:14.259Z,50.18
2023-01-21T12:52:41.676Z,49.97
2023-01-21T12:55:08.185Z,50.35
2023-01-21T12:57:34.664Z,51.04
2023-01-21T13:00:02.114Z,50.37
2023-01-21T13:02:28.615Z,50.57
2023-01-21T13:07:41.121Z,50.82
2023-01-21T13:10:08.562Z,50.31
2023-01-21T13:12:36.023Z,50.37
2023-01-21T13:15:02.524Z,50.39
2023-01-21T13:17:29.931Z,51.39
2023-01-21T13:22:50.488Z,51.29
2023-01-21T13:25:17.941Z,51.17
2023-01-21T13:27:44.567Z,50.42
2023-01-21T13:30:11.099Z,50.49
2023-01-21T13:32:38.514Z,49.68
2023-01-21T13:37:59.005Z,49.10
2023-01-21T13:40:27.351Z,48.87
2023-01-21T13:42:54.800Z,48.70
2023-01-21T13:45:21.444Z,49.07
2023-01-21T13:47:48.899Z,48.94
2023-01-21T13:52:59.728Z,48.51
2023-01-21T13:55:26.379Z,48.29
2023-01-21T13:57:52.861Z,48.39
2023-01-21T14:00:19.546Z,48.40
2023-01-21T14:02:47.082Z,48.13
2023-01-21T14:07:57.693Z,47.92
2023-01-21T14:10:24.165Z,48.16
2023-01-21T14:12:50.792Z,48.04
2023-01-21T14:15:18.430Z,48.42
2023-01-21T14:17:46.033Z,48.95
2023-01-21T14:23:07.459Z,49.18
2023-01-21T14:25:34.882Z,49.40
2023-01-21T14:28:01.355Z,49.63
2023-01-21T14:30:28.749Z,49.40
2023-01-21T14:32:56.088Z,50.19
2023-01-21T14:38:17.417Z,50.08
2023-01-21T14:40:43.944Z,50.11
2023-01-21T14:43:10.398Z,50.45
2023-01-21T14:45:36.875Z,50.65
2023-01-21T14:48:04.240Z,50.89
2023-01-21T14:53:25.922Z,51.44
2023-01-21T14:55:52.396Z,51.65
2023-01-21T14:58:19.771Z,52.47
2023-01-21T15:00:49.008Z,51.96
2023-01-21T15:03:15.487Z,52.37
2023-01-21T15:08:35.889Z,52.29
2023-01-21T15:11:02.287Z,51.95
2023-01-21T15:13:28.723Z,52.52
2023-01-21T15:15:55.101Z,52.35
2023-01-21T15:18:21.494Z,52.56
2023-01-21T15:23:33.744Z,52.64
2023-01-21T15:26:00.176Z,52.45
2023-01-21T15:28:26.539Z,52.71
2023-01-21T15:30:58.531Z,52.82
2023-01-21T15:33:27.227Z,52.53
2023-01-21T15:38:37.713Z,52.58
2023-01-21T15:41:08.254Z,52.52
2023-01-21T15:43:37.608Z,52.46
2023-01-21T15:46:07.696Z,52.01
2023-01-21T15:48:41.818Z,51.62
2023-01-21T15:54:07.353Z,51.09
2023-01-21T15:56:33.787Z,50.99
2023-01-21T15:59:01.078Z,50.90
2023-01-21T16:01:28.388Z,50.59
2023-01-21T16:03:55.664Z,50.69
2023-01-21T16:09:17.206Z,50.10
2023-01-21T16:11:43.628Z,49.91
2023-01-21T16:14:12.510Z,49.68
2023-01-21T16:16:42.085Z,49.75
2023-01-21T16:19:09.381Z,49.56
2023-01-21T16:24:19.911Z,49.28
2023-01-21T16:26:47.177Z,49.27
2023-01-21T16:29:14.428Z,49.19
2023-01-21T16:31:43.158Z,49.37
2023-01-21T16:34:11.728Z,49.34
2023-01-21T16:39:24.085Z,49.23
2023-01-21T16:41:51.410Z,49.28
2023-01-21T16:44:17.851Z,48.93
2023-01-21T16:46:45.201Z,49.08
2023-01-21T16:49:12.880Z,48.69
2023-01-21T16:51:40.613Z,48.83
2023-01-21T16:54:07.348Z,48.83
2023-01-21T16:56:33.812Z,48.73
2023-01-21T16:59:00.256Z,48.78
2023-01-21T17:01:27.693Z,48.82
2023-01-21T17:03:55.053Z,48.88
2023-01-21T17:06:22.492Z,48.53
2023-01-21T17:08:49.848Z,48.67
2023-01-21T17:11:17.216Z,48.51
2023-01-21T17:13:43.679Z,48.35
2023-01-21T17:16:10.252Z,48.14
2023-01-21T17:18:36.717Z,48.33
2023-01-21T17:21:03.373Z,48.19
2023-01-21T17:23:30.954Z,48.40
2023-01-21T17:25:57.390Z,48.05
2023-01-21T17:28:23.869Z,48.08
2023-01-21T17:30:51.258Z,48.19
2023-01-21T17:33:18.657Z,47.94
2023-01-21T17:35:46.038Z,48.01
2023-01-21T17:38:13.424Z,48.03
2023-01-21T17:40:40.815Z,48.04
2023-01-21T17:43:07.268Z,47.91
2023-01-21T17:45:33.716Z,48.08
2023-01-21T17:48:09.004Z,48.08
2023-01-21T17:50:37.142Z,48.01
2023-01-21T17:53:04.580Z,47.98
2023-01-21T17:55:31.018Z,47.89
2023-01-21T17:57:57.462Z,47.81
2023-01-21T18:00:24.855Z,47.99
2023-01-21T18:02:52.262Z,47.82
2023-01-21T18:05:19.806Z,47.56
2023-01-21T18:07:47.131Z,47.81
2023-01-21T18:13:08.666Z,47.61
2023-01-21T18:15:36.053Z,47.48
2023-01-21T18:18:03.692Z,47.41
2023-01-21T18:20:30.310Z,47.66
2023-01-21T18:22:57.734Z,47.49
2023-01-21T18:28:10.161Z,47.46
2023-01-21T18:30:37.554Z,47.16
2023-01-21T18:33:04.966Z,47.28
2023-01-21T18:35:31.422Z,47.40
2023-01-21T18:37:57.880Z,47.52
2023-01-21T18:43:10.615Z,47.42
2023-01-21T18:45:37.061Z,47.41
2023-01-21T18:48:04.497Z,47.27
2023-01-21T18:50:30.996Z,47.13
2023-01-21T18:52:58.358Z,47.50
2023-01-21T18:58:18.860Z,47.23
2023-01-21T19:00:45.326Z,47.19
2023-01-21T19:03:11.835Z,47.43
2023-01-21T19:05:38.664Z,47.37
2023-01-21T19:08:06.007Z,47.42
2023-01-21T19:13:17.458Z,47.51
2023-01-21T19:15:44.792Z,47.67
2023-01-21T19:18:12.220Z,47.49
2023-01-21T19:20:39.559Z,47.38
2023-01-21T19:23:07.090Z,47.92
2023-01-21T19:28:18.802Z,47.89
2023-01-21T19:30:45.284Z,48.02
2023-01-21T19:33:12.655Z,47.94
2023-01-21T19:35:39.226Z,48.18
2023-01-21T19:38:05.700Z,48.15
2023-01-21T19:43:26.017Z,48.16
2023-01-21T19:45:53.395Z,48.38
2023-01-21T19:48:19.844Z,48.38
2023-01-21T19:50:47.371Z,48.17
2023-01-21T19:53:13.858Z,48.43
2023-01-21T19:58:36.371Z,48.32
2023-01-21T20:01:02.882Z,48.57
2023-01-21T20:03:30.588Z,48.76
2023-01-21T20:05:58.182Z,48.43
2023-01-21T20:08:24.636Z,48.76
2023-01-21T20:13:36.911Z,48.77
2023-01-21T20:16:03.644Z,48.87
2023-01-21T20:18:30.163Z,48.92
2023-01-21T20:20:57.496Z,48.69
2023-01-21T20:23:25.058Z,49.09
2023-01-21T20:28:35.662Z,48.91
2023-01-21T20:31:03.139Z,49.19
2023-01-21T20:33:29.636Z,48.86
2023-01-21T20:35:56.928Z,49.01
2023-01-21T20:38:24.331Z,49.02
2023-01-21T20:40:51.680Z,49.24
2023-01-21T20:43:20.156Z,49.43
2023-01-21T20:45:48.186Z,49.48
2023-01-21T20:48:14.647Z,49.20
2023-01-21T20:50:41.126Z,49.46
2023-01-21T20:53:08.492Z,49.28
2023-01-21T20:55:35.777Z,49.29
2023-01-21T20:58:02.248Z,49.33
2023-01-21T21:00:28.857Z,49.51
2023-01-21T21:02:55.320Z,49.40
2023-01-21T21:05:21.752Z,49.29
2023-01-21T21:07:48.218Z,49.29
2023-01-21T21:10:14.804Z,49.29
2023-01-21T21:12:41.561Z,49.43
2023-01-21T21:15:08.022Z,49.27
2023-01-21T21:17:34.469Z,49.67
2023-01-21T21:20:00.944Z,48.90
2023-01-21T21:22:28.375Z,48.24
2023-01-21T21:24:55.759Z,48.58
2023-01-21T21:27:22.204Z,47.72
2023-01-21T21:29:48.649Z,47.35
2023-01-21T21:32:15.224Z,46.90
2023-01-21T21:34:42.681Z,47.75
2023-01-21T21:37:09.205Z,48.54
2023-01-21T21:39:36.478Z,49.13
2023-01-21T21:42:02.907Z,49.11
2023-01-21T21:44:31.182Z,49.77
2023-01-21T21:46:57.862Z,49.63
2023-01-21T21:49:25.126Z,50.45
2023-01-21T21:51:51.706Z,50.96
2023-01-21T21:54:18.196Z,51.15
2023-01-21T21:56:44.641Z,51.80
2023-01-21T22:02:07.945Z,51.88
2023-01-21T22:04:34.550Z,52.32
2023-01-21T22:07:00.956Z,52.11
2023-01-21T22:09:27.350Z,52.32
2023-01-21T22:11:53.768Z,51.80
2023-01-21T22:17:05.870Z,52.40
2023-01-21T22:19:32.304Z,53.49
2023-01-21T22:22:00.744Z,53.00
2023-01-21T22:24:29.927Z,53.15
2023-01-21T22:26:59.031Z,52.75
2023-01-21T22:32:19.441Z,53.38
2023-01-21T22:34:48.791Z,54.36
2023-01-21T22:37:15.232Z,53.04
2023-01-21T22:39:43.557Z,53.04
2023-01-21T22:42:11.110Z,53.08
2023-01-21T22:47:22.995Z,52.70
2023-01-21T22:49:50.580Z,53.34
2023-01-21T22:52:18.705Z,53.21
2023-01-21T22:54:45.192Z,53.23
2023-01-21T22:57:13.508Z,54.04
2023-01-21T23:02:39.202Z,53.03
2023-01-21T23:05:05.895Z,53.43
2023-01-21T23:07:34.240Z,53.21
2023-01-21T23:10:00.697Z,53.24
2023-01-21T23:12:29.874Z,53.83
2023-01-21T23:17:42.733Z,53.40
2023-01-21T23:20:09.960Z,53.52
2023-01-21T23:22:36.313Z,53.26
2023-01-21T23:25:04.646Z,53.91
2023-01-21T23:27:31.878Z,53.37
2023-01-21T23:32:43.168Z,53.61
2023-01-21T23:35:10.383Z,53.26
2023-01-21T23:37:36.755Z,53.65
2023-01-21T23:40:03.178Z,53.37
2023-01-21T23:42:29.552Z,53.61
2023-01-21T23:47:42.626Z,53.39
2023-01-21T23:50:09.031Z,53.58
2023-01-21T23:52:35.373Z,53.15
2023-01-21T23:55:01.795Z,53.36
2023-01-21T23:57:28.139Z,53.23
